Time;durP1;ratioP1;P1;durP2;ratioP2;P2;SDS_P1;SDS_P2;PMS_P1;PMS_P2;Temp;Humidity;BMP_temperature;BMP_pressure;BME280_temperature;BME280_humidity;BME280_pressure;Samples;Min_cycle;Max_cycle;Signal;HPM_P1;HPM_P2
2022/11/17 00:00:16;;;;;;;9.77;3.25;;;11.70;92.40;;;;;;5027532;28;20025;-74
2022/11/17 00:02:42;;;;;;;8.07;3.35;;;11.70;92.00;;;;;;5015628;28;20079;-73
2022/11/17 00:05:08;;;;;;;8.52;3.00;;;11.70;91.50;;;;;;5028672;28;20053;-75
2022/11/17 00:07:35;;;;;;;9.85;3.28;;;11.70;91.90;;;;;;5016876;28;20029;-74
2022/11/17 00:10:01;;;;;;;9.38;2.90;;;11.60;92.40;;;;;;5020582;28;20045;-75
2022/11/17 00:15:11;;;;;;;5.97;2.83;;;11.60;92.70;;;;;;5020963;28;20091;-75
2022/11/17 00:17:36;;;;;;;11.48;3.65;;;11.70;92.00;;;;;;5009175;28;20385;-74
2022/11/17 00:22:47;;;;;;;9.52;2.97;;;11.60;92.00;;;;;;5028732;28;20055;-74
2022/11/17 00:25:13;;;;;;;7.70;3.03;;;11.60;92.60;;;;;;5026447;28;20046;-74
2022/11/17 00:27:39;;;;;;;7.45;3.05;;;11.60;92.50;;;;;;5024325;28;20033;-73
2022/11/17 00:30:05;;;;;;;12.07;3.55;;;11.60;92.80;;;;;;5020794;28;20052;-75
2022/11/17 00:35:15;;;;;;;11.85;3.70;;;11.60;93.00;;;;;;5023064;28;20052;-74
2022/11/17 00:38:14;;;;;;;7.60;2.65;;;11.60;92.90;;;;;;5028263;28;20021;-74
2022/11/17 00:40:26;;;;;;;7.95;3.17;;;11.60;92.70;;;;;;5020321;28;20033;-75
2022/11/17 00:42:52;;;;;;;9.43;3.20;;;11.60;92.50;;;;;;5024163;28;20373;-74
2022/11/17 00:45:18;;;;;;;5.70;3.15;;;11.60;92.90;;;;;;5019907;28;20014;-74
2022/11/17 00:47:43;;;;;;;8.82;2.85;;;11.60;92.80;;;;;;5028730;28;20515;-74
2022/11/17 00:50:09;;;;;;;10.88;3.30;;;11.50;93.40;;;;;;5023189;28;20088;-73
2022/11/17 00:52:35;;;;;;;8.88;3.60;;;11.50;93.10;;;;;;5023870;28;20034;-74
2022/11/17 00:55:01;;;;;;;8.25;2.75;;;11.60;93.10;;;;;;5023637;28;20053;-74
2022/11/17 00:57:26;;;;;;;7.55;2.50;;;11.60;92.70;;;;;;5026103;28;20538;-73
2022/11/17 00:59:52;;;;;;;6.60;2.40;;;11.50;93.40;;;;;;5020220;28;20026;-73
2022/11/17 01:02:18;;;;;;;8.43;2.50;;;11.50;93.30;;;;;;5030040;28;20017;-73
2022/11/17 01:04:43;;;;;;;8.30;3.35;;;11.60;92.50;;;;;;5031694;28;20045;-72
2022/11/17 01:07:09;;;;;;;11.10;3.50;;;11.60;93.30;;;;;;5027751;28;20022;-73
2022/11/17 01:09:35;;;;;;;8.55;3.00;;;11.60;93.40;;;;;;5031017;28;20069;-73
2022/11/17 01:18:47;;;;;;;6.85;2.30;;;11.50;94.30;;;;;;5016300;28;20463;-73
2022/11/17 01:21:22;;;;;;;6.57;2.58;;;11.50;93.10;;;;;;5024458;28;20033;-74
2022/11/17 01:23:49;;;;;;;6.95;2.42;;;11.50;93.40;;;;;;5021722;28;20050;-73
2022/11/17 01:26:18;;;;;;;6.57;2.40;;;11.50;93.50;;;;;;5018666;28;20040;-73
2022/11/17 01:28:44;;;;;;;7.75;2.25;;;11.50;93.20;;;;;;5030271;28;20048;-73
2022/11/17 01:31:21;;;;;;;8.02;2.20;;;11.50;93.60;;;;;;5019135;28;20060;-73
2022/11/17 01:33:47;;;;;;;7.43;2.33;;;11.50;93.70;;;;;;5027257;28;20028;-74
2022/11/17 01:36:16;;;;;;;6.38;2.10;;;11.50;93.60;;;;;;5017978;28;20032;-73
2022/11/17 01:38:43;;;;;;;6.47;2.13;;;11.50;93.70;;;;;;5025496;28;20088;-73
2022/11/17 01:41:24;;;;;;;7.35;2.00;;;11.50;93.30;;;;;;5011232;28;20022;-74
2022/11/17 01:44:36;;;;;;;9.70;2.22;;;11.50;93.50;;;;;;5029586;28;20048;-74
2022/11/17 01:47:04;;;;;;;6.07;2.38;;;11.60;93.30;;;;;;5024169;28;20022;-73
2022/11/17 01:49:31;;;;;;;6.50;1.95;;;11.50;94.00;;;;;;5017416;28;20026;-74
2022/11/17 01:52:04;;;;;;;7.22;2.00;;;11.50;93.60;;;;;;5015339;28;20018;-74
2022/11/17 01:54:32;;;;;;;6.20;1.92;;;11.40;94.40;;;;;;5030162;28;20072;-74
2022/11/17 01:57:03;;;;;;;5.68;2.30;;;11.50;93.80;;;;;;5011804;28;20037;-74
2022/11/17 01:59:38;;;;;;;7.95;2.40;;;11.50;94.10;;;;;;5025446;28;20029;-73
2022/11/17 02:02:04;;;;;;;6.85;2.17;;;11.50;94.10;;;;;;5024349;28;20037;-73
2022/11/17 02:04:37;;;;;;;5.32;2.38;;;11.50;94.00;;;;;;5015652;28;20025;-73
2022/11/17 02:07:17;;;;;;;4.82;1.98;;;11.50;93.70;;;;;;5010528;28;20065;-73
2022/11/17 02:09:44;;;;;;;7.28;2.22;;;11.50;93.30;;;;;;5018966;28;20038;-73
2022/11/17 02:12:13;;;;;;;8.70;2.45;;;11.40;94.50;;;;;;5013164;28;20115;-73
2022/11/17 02:14:40;;;;;;;11.00;2.28;;;11.50;94.60;;;;;;5024928;28;20112;-73
2022/11/17 02:17:08;;;;;;;5.97;2.20;;;11.50;94.70;;;;;;5018941;28;21035;-73
2022/11/17 02:19:39;;;;;;;5.00;1.73;;;11.50;94.80;;;;;;5027759;28;20387;-72
2022/11/17 02:22:31;;;;;;;2.75;1.45;;;11.60;93.90;;;;;;5017577;28;20022;-73
2022/11/17 02:25:30;;;;;;;5.65;1.75;;;11.60;93.60;;;;;;5028730;28;20045;-74
2022/11/17 02:28:13;;;;;;;4.95;1.70;;;11.70;93.60;;;;;;5014394;28;20034;-74
2022/11/17 02:31:10;;;;;;;5.07;1.58;;;11.70;93.20;;;;;;5029974;28;20038;-72
2022/11/17 02:34:02;;;;;;;6.20;2.15;;;11.70;93.80;;;;;;5015937;28;20091;-72
2022/11/17 02:37:05;;;;;;;4.45;1.65;;;11.70;93.50;;;;;;5017608;28;20030;-73
2022/11/17 02:40:01;;;;;;;9.13;2.10;;;11.70;93.70;;;;;;5019916;28;20543;-73
2022/11/17 02:45:19;;;;;;;4.35;1.77;;;11.80;93.50;;;;;;5022904;28;20096;-74
2022/11/17 02:47:47;;;;;;;7.68;3.47;;;11.80;93.40;;;;;;5010932;28;20026;-74
2022/11/17 02:50:14;;;;;;;3.60;1.20;;;11.80;93.20;;;;;;5038766;28;20092;-74
2022/11/17 02:52:39;;;;;;;4.07;1.00;;;11.80;93.90;;;;;;5015882;28;20048;-74
2022/11/17 02:55:08;;;;;;;3.90;1.40;;;11.80;92.70;;;;;;5016765;28;20018;-74
2022/11/17 02:57:38;;;;;;;4.03;1.25;;;11.90;92.80;;;;;;5019084;28;20403;-73
2022/11/17 03:00:14;;;;;;;4.68;1.38;;;11.80;93.20;;;;;;5015583;28;20033;-74
2022/11/17 03:03:16;;;;;;;3.47;1.42;;;11.90;92.90;;;;;;5022614;28;20500;-75
2022/11/17 03:05:45;;;;;;;5.72;1.73;;;11.90;92.30;;;;;;5023525;28;20084;-73
2022/11/17 03:08:32;;;;;;;5.00;1.55;;;11.90;92.80;;;;;;5021786;28;20033;-73
2022/11/17 03:11:06;;;;;;;5.78;1.20;;;11.90;92.30;;;;;;5022163;28;20835;-74
2022/11/17 03:13:43;;;;;;;4.75;1.60;;;11.90;93.10;;;;;;5021603;28;20029;-73
2022/11/17 03:16:38;;;;;;;6.72;1.92;;;11.90;93.10;;;;;;5023428;28;20021;-74
2022/11/17 03:19:33;;;;;;;5.15;1.63;;;11.90;92.70;;;;;;5014232;28;20044;-74
2022/11/17 03:22:09;;;;;;;4.47;1.17;;;11.90;92.00;;;;;;5018780;28;20817;-73
2022/11/17 03:24:42;;;;;;;5.40;1.40;;;12.00;91.80;;;;;;5026964;28;20045;-74
2022/11/17 03:27:22;;;;;;;4.20;1.50;;;12.00;92.30;;;;;;5023231;28;20030;-73
2022/11/17 03:29:53;;;;;;;3.60;1.33;;;12.00;92.60;;;;;;5012330;28;20048;-73
2022/11/17 03:32:21;;;;;;;6.00;1.35;;;12.10;92.50;;;;;;5024367;28;20028;-74
2022/11/17 03:34:54;;;;;;;2.78;1.10;;;12.00;92.80;;;;;;5007995;28;20104;-73
2022/11/17 03:37:22;;;;;;;3.33;1.33;;;12.10;91.70;;;;;;5026639;28;20148;-73
2022/11/17 03:39:54;;;;;;;6.60;1.17;;;12.10;91.80;;;;;;5016818;28;20068;-75
2022/11/17 03:42:27;;;;;;;3.50;1.38;;;12.20;91.50;;;;;;5026130;28;20116;-74
2022/11/17 03:44:59;;;;;;;2.83;1.30;;;12.20;91.50;;;;;;5010171;28;20049;-73
2022/11/17 03:47:27;;;;;;;4.80;1.45;;;12.20;91.40;;;;;;5025631;28;20033;-73
2022/11/17 03:49:56;;;;;;;4.00;1.65;;;12.20;92.20;;;;;;5012968;28;20717;-73
2022/11/17 03:52:23;;;;;;;3.38;1.50;;;12.20;91.40;;;;;;5020647;28;20028;-75
2022/11/17 03:54:50;;;;;;;6.00;2.40;;;12.20;91.10;;;;;;5020693;28;20538;-74
2022/11/17 03:57:39;;;;;;;4.63;1.27;;;12.20;91.90;;;;;;5020992;28;20022;-74
2022/11/17 04:00:10;;;;;;;5.03;1.50;;;12.20;91.60;;;;;;5018468;28;20037;-74
2022/11/17 04:02:38;;;;;;;5.10;1.77;;;12.30;91.00;;;;;;5019923;28;20055;-74
2022/11/17 04:05:04;;;;;;;7.03;1.95;;;12.20;91.90;;;;;;5026531;28;20025;-74
2022/11/17 04:07:31;;;;;;;6.03;2.00;;;12.10;92.50;;;;;;5027803;28;20021;-74
2022/11/17 04:09:57;;;;;;;4.57;1.60;;;12.10;91.80;;;;;;5017183;28;20106;-75
2022/11/17 04:17:53;;;;;;;4.95;1.63;;;12.20;91.70;;;;;;5025139;28;20040;-74
2022/11/17 04:20:19;;;;;;;3.95;1.35;;;12.10;92.30;;;;;;5007873;28;20033;-73
2022/11/17 04:22:45;;;;;;;5.05;1.55;;;12.10;91.90;;;;;;5018067;28;20670;-73
2022/11/17 04:28:35;;;;;;;3.90;1.65;;;12.10;92.40;;;;;;5024977;28;20144;-75
2022/11/17 04:30:40;;;;;;;6.75;2.03;;;12.00;93.10;;;;;;5015625;28;20077;-74
2022/11/17 04:33:05;;;;;;;6.30;1.35;;;12.00;92.70;;;;;;5016614;28;20060;-75
2022/11/17 04:35:33;;;;;;;3.35;1.67;;;12.00;92.40;;;;;;5016196;28;20049;-73
2022/11/17 04:37:58;;;;;;;3.38;1.42;;;12.00;92.80;;;;;;5020015;28;20500;-72
2022/11/17 04:40:24;;;;;;;4.97;1.33;;;12.00;92.60;;;;;;5026932;28;20112;-74
2022/11/17 04:42:51;;;;;;;5.40;1.40;;;12.00;92.40;;;;;;5021785;28;20163;-72
2022/11/17 04:45:18;;;;;;;5.68;2.10;;;12.00;93.20;;;;;;5019648;28;20492;-74
2022/11/17 04:47:43;;;;;;;3.00;1.23;;;12.00;93.70;;;;;;5021019;28;20022;-73
2022/11/17 04:50:09;;;;;;;3.97;1.25;;;12.00;92.90;;;;;;5019218;28;20062;-74
2022/11/17 04:52:35;;;;;;;5.10;1.77;;;12.00;92.60;;;;;;5019061;28;20052;-73
2022/11/17 04:55:00;;;;;;;4.18;1.70;;;12.00;93.40;;;;;;5022609;28;20112;-74
2022/11/17 04:57:26;;;;;;;4.22;1.60;;;12.00;92.60;;;;;;5011815;28;20073;-74
2022/11/17 04:59:52;;;;;;;6.53;1.40;;;12.00;92.20;;;;;;5018119;28;20029;-74
2022/11/17 05:02:17;;;;;;;4.68;1.65;;;12.00;92.60;;;;;;5027167;28;20029;-73
2022/11/17 05:04:55;;;;;;;4.38;1.50;;;12.00;92.30;;;;;;5026376;28;20029;-74
2022/11/17 05:07:21;;;;;;;4.55;1.45;;;12.00;92.60;;;;;;5007795;28;20101;-74
2022/11/17 05:09:46;;;;;;;3.80;1.52;;;12.00;91.90;;;;;;5012197;28;20133;-74
2022/11/17 05:14:56;;;;;;;4.32;1.65;;;12.00;92.80;;;;;;5020556;28;20049;-74
2022/11/17 05:17:22;;;;;;;5.13;2.00;;;11.90;92.80;;;;;;5022169;28;20026;-75
2022/11/17 05:19:47;;;;;;;8.50;2.95;;;11.90;93.30;;;;;;5017788;28;20037;-74
2022/11/17 05:25:07;;;;;;;6.78;2.25;;;11.90;94.20;;;;;;5021592;28;20055;-76
2022/11/17 05:27:33;;;;;;;3.72;1.80;;;11.90;93.30;;;;;;5016170;28;20026;-74
2022/11/17 05:29:59;;;;;;;5.50;2.15;;;11.90;92.90;;;;;;5021301;28;20204;-74
2022/11/17 05:32:25;;;;;;;4.20;1.80;;;11.90;93.30;;;;;;5017327;28;20037;-74
2022/11/17 05:34:51;;;;;;;5.43;1.58;;;11.90;93.50;;;;;;5019348;28;20025;-74
2022/11/17 05:37:16;;;;;;;3.88;1.88;;;11.80;93.60;;;;;;5009168;28;20488;-73
2022/11/17 05:39:42;;;;;;;6.30;1.90;;;11.80;93.30;;;;;;5013820;28;20090;-74
2022/11/17 05:42:08;;;;;;;2.72;1.30;;;11.90;93.20;;;;;;5021528;28;20029;-73
2022/11/17 05:44:34;;;;;;;3.05;1.30;;;11.80;92.90;;;;;;5016401;28;20030;-74
2022/11/17 05:46:59;;;;;;;2.53;1.23;;;11.90;92.70;;;;;;5021905;28;20021;-75
2022/11/17 05:49:25;;;;;;;4.18;1.23;;;11.90;92.30;;;;;;5018078;28;20041;-75
2022/11/17 05:51:51;;;;;;;5.88;2.13;;;11.90;92.40;;;;;;5023590;28;20430;-75
2022/11/17 05:54:16;;;;;;;4.55;1.48;;;11.80;93.40;;;;;;5009597;28;20086;-75
2022/11/17 05:56:51;;;;;;;5.00;1.63;;;11.80;93.60;;;;;;5024872;28;20797;-74
2022/11/17 05:59:19;;;;;;;3.40;1.80;;;11.80;93.80;;;;;;5010529;28;20030;-74
2022/11/17 06:02:15;;;;;;;4.60;1.83;;;11.70;94.40;;;;;;5016176;28;20026;-73
2022/11/17 06:04:40;;;;;;;5.45;1.70;;;11.80;94.30;;;;;;5009092;28;20053;-73
2022/11/17 06:07:07;;;;;;;6.13;2.03;;;11.80;93.40;;;;;;5021582;28;20026;-73
2022/11/17 06:09:40;;;;;;;5.38;1.85;;;11.80;93.10;;;;;;5029666;28;20051;-73
2022/11/17 06:12:06;;;;;;;4.43;1.60;;;11.80;92.90;;;;;;5020606;28;20496;-73
2022/11/17 06:14:32;;;;;;;4.97;1.90;;;11.90;92.70;;;;;;5029394;28;20060;-74
2022/11/17 06:17:04;;;;;;;5.18;2.03;;;11.80;93.10;;;;;;5016256;28;20013;-73
2022/11/17 06:19:39;;;;;;;3.85;1.70;;;11.80;93.70;;;;;;5014259;28;20030;-73
2022/11/17 06:22:05;;;;;;;6.70;2.97;;;11.80;93.60;;;;;;5020635;28;20060;-74
2022/11/17 06:24:32;;;;;;;4.10;1.55;;;11.80;94.30;;;;;;5013683;28;20076;-73
2022/11/17 06:26:57;;;;;;;5.03;1.70;;;11.80;94.00;;;;;;5017476;28;20021;-73
2022/11/17 06:29:24;;;;;;;6.57;2.17;;;11.80;93.10;;;;;;5011709;28;20444;-75
2022/11/17 06:31:49;;;;;;;7.78;2.08;;;11.80;94.00;;;;;;5016678;28;20052;-73
2022/11/17 06:34:15;;;;;;;6.95;2.05;;;11.80;94.10;;;;;;5013989;28;20531;-73
2022/11/17 06:36:41;;;;;;;4.72;2.10;;;11.70;94.40;;;;;;5013921;28;20034;-74
2022/11/17 06:39:07;;;;;;;4.57;1.75;;;11.70;94.30;;;;;;5020768;28;20069;-75
2022/11/17 06:41:33;;;;;;;3.25;1.00;;;11.80;93.80;;;;;;5024603;28;20107;-73
2022/11/17 06:43:59;;;;;;;5.60;1.73;;;11.70;93.60;;;;;;5025540;28;20483;-74
2022/11/17 06:46:36;;;;;;;5.97;1.50;;;11.80;93.00;;;;;;5017197;28;20040;-75
2022/11/17 06:49:08;;;;;;;5.03;2.00;;;11.80;93.60;;;;;;5026533;28;20029;-74
2022/11/17 06:51:34;;;;;;;8.48;2.00;;;11.80;94.50;;;;;;5008729;28;20042;-71
2022/11/17 06:54:00;;;;;;;5.65;1.70;;;11.80;94.60;;;;;;5020182;28;20446;-74
2022/11/17 06:56:26;;;;;;;4.10;1.08;;;11.80;94.20;;;;;;5012282;28;20029;-73
2022/11/17 06:58:53;;;;;;;5.55;1.90;;;11.90;92.70;;;;;;5022887;28;20707;-74
2022/11/17 07:01:18;;;;;;;6.30;1.55;;;11.90;93.40;;;;;;5011844;28;20037;-74
2022/11/17 07:03:44;;;;;;;6.45;1.85;;;12.00;93.40;;;;;;5018942;28;20641;-74
2022/11/17 07:06:11;;;;;;;7.57;1.70;;;12.00;94.50;;;;;;5028766;28;20039;-72
2022/11/17 07:08:38;;;;;;;8.82;1.55;;;11.90;94.90;;;;;;5019663;28;20526;-73
2022/11/17 07:11:09;;;;;;;8.85;2.30;;;12.00;95.20;;;;;;5026099;28;20894;-74
2022/11/17 07:13:35;;;;;;;4.53;1.33;;;12.00;94.90;;;;;;5021499;28;20585;-74
2022/11/17 07:16:12;;;;;;;7.32;1.63;;;12.00;94.70;;;;;;5020346;28;20069;-73
2022/11/17 07:18:40;;;;;;;6.78;1.38;;;12.10;94.00;;;;;;5013382;28;20080;-75
2022/11/17 07:21:09;;;;;;;7.70;1.83;;;12.10;93.90;;;;;;5012074;28;20056;-74
2022/11/17 07:23:36;;;;;;;5.95;1.30;;;12.10;93.40;;;;;;5015969;28;20565;-74
2022/11/17 07:26:02;;;;;;;5.57;1.35;;;12.10;93.30;;;;;;5019728;28;20034;-73
2022/11/17 07:28:29;;;;;;;8.43;1.25;;;12.00;94.40;;;;;;5017262;28;20514;-73
2022/11/17 07:30:55;;;;;;;8.50;1.63;;;12.00;94.40;;;;;;5019706;28;20106;-73
2022/11/17 07:33:21;;;;;;;9.00;2.40;;;12.00;93.80;;;;;;5012315;28;20030;-73
2022/11/17 07:35:47;;;;;;;7.13;1.60;;;12.10;93.80;;;;;;5019102;28;20449;-74
2022/11/17 07:38:14;;;;;;;8.73;2.10;;;12.10;93.60;;;;;;5011199;28;20053;-73
2022/11/17 07:40:39;;;;;;;5.43;1.33;;;12.10;94.00;;;;;;5024557;28;20021;-72
2022/11/17 07:43:05;;;;;;;11.60;1.42;;;12.20;93.20;;;;;;5014853;28;20100;-74
2022/11/17 07:45:31;;;;;;;7.30;1.33;;;12.10;93.50;;;;;;5028424;28;20079;-73
2022/11/17 07:47:59;;;;;;;6.70;1.33;;;12.20;93.50;;;;;;5022398;28;20112;-75
2022/11/17 07:50:25;;;;;;;6.38;1.90;;;12.20;93.10;;;;;;5016043;28;20996;-74
2022/11/17 07:52:53;;;;;;;6.95;1.20;;;12.20;93.50;;;;;;5016877;28;20084;-75
2022/11/17 07:55:19;;;;;;;8.52;1.40;;;12.10;94.10;;;;;;5023350;28;20479;-73
2022/11/17 07:57:45;;;;;;;5.35;1.13;;;12.10;93.80;;;;;;5019570;28;20041;-74
2022/11/17 08:00:12;;;;;;;14.20;2.65;;;12.20;93.00;;;;;;5020396;28;20045;-73
2022/11/17 08:02:39;;;;;;;5.70;1.30;;;12.20;93.50;;;;;;5020283;28;20038;-74
2022/11/17 08:05:05;;;;;;;6.57;1.70;;;12.00;94.20;;;;;;5024676;28;20511;-74
2022/11/17 08:07:31;;;;;;;4.25;0.93;;;12.10;93.10;;;;;;5011201;28;20029;-73
2022/11/17 08:09:57;;;;;;;5.13;1.48;;;12.10;93.20;;;;;;5020222;28;20538;-73
2022/11/17 08:12:22;;;;;;;5.53;1.20;;;12.10;93.50;;;;;;5018736;28;20128;-73
2022/11/17 08:14:48;;;;;;;3.45;1.00;;;12.10;93.50;;;;;;5010158;28;20049;-73
2022/11/17 08:17:16;;;;;;;4.15;1.10;;;12.00;93.80;;;;;;5015788;28;20203;-71
2022/11/17 08:19:41;;;;;;;4.90;0.98;;;12.10;93.00;;;;;;5010774;28;20419;-74
2022/11/17 08:22:07;;;;;;;5.80;1.23;;;12.00;93.20;;;;;;5025101;28;20018;-74
2022/11/17 08:24:33;;;;;;;6.72;1.90;;;12.10;92.50;;;;;;5022397;28;20111;-74
2022/11/17 08:26:58;;;;;;;9.57;1.50;;;12.00;93.10;;;;;;5024878;28;20025;-73
2022/11/17 08:29:24;;;;;;;7.38;1.25;;;12.00;93.20;;;;;;5013804;28;20045;-73
2022/11/17 08:31:50;;;;;;;4.75;0.88;;;12.00;93.00;;;;;;5014402;28;20029;-75
2022/11/17 08:34:15;;;;;;;7.93;2.08;;;12.00;93.00;;;;;;5017513;28;20032;-75
2022/11/17 08:36:41;;;;;;;4.40;1.05;;;11.90;93.40;;;;;;5017143;28;20030;-74
2022/11/17 08:39:08;;;;;;;4.43;1.30;;;11.90;93.40;;;;;;5017057;28;20025;-74
2022/11/17 08:41:34;;;;;;;7.70;1.10;;;12.00;93.00;;;;;;5021200;28;20030;-74
2022/11/17 08:43:59;;;;;;;4.18;1.00;;;11.90;93.50;;;;;;5008563;28;20022;-75
2022/11/17 08:46:25;;;;;;;8.45;1.30;;;11.90;93.50;;;;;;5016858;28;20676;-75
2022/11/17 08:48:51;;;;;;;5.07;0.90;;;11.80;93.80;;;;;;5021994;28;20480;-73
2022/11/17 08:51:17;;;;;;;6.50;1.40;;;11.80;93.70;;;;;;5026300;28;20036;-73
2022/11/17 08:53:42;;;;;;;6.25;1.52;;;11.90;93.10;;;;;;5023617;28;20060;-72
2022/11/17 08:56:10;;;;;;;8.88;1.00;;;11.90;92.90;;;;;;5017528;28;20113;-73
2022/11/17 08:58:43;;;;;;;5.00;0.98;;;11.90;93.00;;;;;;5023119;28;20037;-72
2022/11/17 09:01:14;;;;;;;4.03;1.00;;;11.90;92.90;;;;;;5013097;28;20026;-72
2022/11/17 09:03:42;;;;;;;6.03;1.42;;;11.90;92.50;;;;;;5023830;28;20026;-72
2022/11/17 09:06:09;;;;;;;6.88;1.02;;;11.90;92.60;;;;;;5013183;28;20026;-71
2022/11/17 09:08:35;;;;;;;6.50;1.13;;;11.90;93.10;;;;;;5026658;28;20052;-72
2022/11/17 09:11:05;;;;;;;5.32;1.55;;;11.90;92.90;;;;;;5008004;28;20120;-72
2022/11/17 09:13:30;;;;;;;;;;;11.80;92.70;;;;;;5023028;28;20071;-72
2022/11/17 09:16:08;;;;;;;4.32;1.17;;;11.90;92.50;;;;;;5023947;28;19904;-72
2022/11/17 09:18:36;;;;;;;4.80;1.48;;;11.90;92.50;;;;;;5031252;28;20507;-72
2022/11/17 09:21:04;;;;;;;6.78;1.30;;;11.90;92.70;;;;;;5020075;28;20022;-73
2022/11/17 09:23:30;;;;;;;4.07;1.05;;;11.90;92.60;;;;;;5024106;28;22593;-73
2022/11/17 09:25:57;;;;;;;2.83;0.80;;;11.90;92.50;;;;;;5021884;28;20057;-73
2022/11/17 09:28:24;;;;;;;3.65;1.00;;;12.00;92.40;;;;;;5024538;28;20017;-73
2022/11/17 09:30:50;;;;;;;4.22;1.23;;;12.00;92.40;;;;;;5020141;28;20049;-72
2022/11/17 09:33:16;;;;;;;4.53;1.10;;;12.00;92.30;;;;;;5022821;28;20539;-74
2022/11/17 09:35:42;;;;;;;4.97;0.95;;;12.10;92.00;;;;;;5021013;28;20104;-72
2022/11/17 09:38:07;;;;;;;5.95;1.20;;;12.10;91.80;;;;;;5019052;28;20022;-72
2022/11/17 09:40:34;;;;;;;2.40;0.85;;;12.10;91.80;;;;;;5015385;28;20111;-72
2022/11/17 09:43:03;;;;;;;2.28;0.52;;;12.00;91.60;;;;;;5024053;28;20021;-73
2022/11/17 09:45:32;;;;;;;3.40;0.80;;;12.00;91.70;;;;;;5027853;28;20112;-73
2022/11/17 09:48:10;;;;;;;2.85;0.50;;;12.10;91.60;;;;;;5026583;28;20317;-72
2022/11/17 09:50:38;;;;;;;4.80;0.75;;;12.10;91.40;;;;;;5021428;28;20101;-72
2022/11/17 09:53:28;;;;;;;3.63;1.00;;;12.10;91.30;;;;;;5016158;28;20048;-73
2022/11/17 09:56:01;;;;;;;3.85;0.93;;;12.10;91.40;;;;;;5019062;28;20021;-74
2022/11/17 09:58:50;;;;;;;2.42;0.68;;;12.10;91.50;;;;;;5015612;28;20391;-72
2022/11/17 10:01:18;;;;;;;1.73;0.65;;;12.00;91.50;;;;;;5023761;28;20033;-73
2022/11/17 10:03:46;;;;;;;3.67;0.70;;;12.00;91.70;;;;;;5021292;28;20044;-73
2022/11/17 10:06:27;;;;;;;2.17;0.60;;;11.90;91.90;;;;;;5013884;28;20472;-74
2022/11/17 10:09:01;;;;;;;1.40;0.60;;;11.90;92.00;;;;;;5015442;28;20369;-73
2022/11/17 10:11:32;;;;;;;4.95;1.27;;;11.90;91.80;;;;;;5020400;28;20025;-74
2022/11/17 10:14:07;;;;;;;3.83;0.90;;;11.80;92.20;;;;;;5011366;28;20022;-73
2022/11/17 10:16:34;;;;;;;4.20;0.80;;;11.80;92.20;;;;;;5029752;28;20049;-71
2022/11/17 10:19:09;;;;;;;4.18;1.15;;;11.80;92.30;;;;;;5015903;28;20021;-73
2022/11/17 10:21:36;;;;;;;4.38;1.02;;;11.80;92.20;;;;;;5019478;28;20079;-73
2022/11/17 10:24:02;;;;;;;5.53;0.93;;;11.80;92.20;;;;;;5013587;28;20041;-72
2022/11/17 10:26:30;;;;;;;2.85;0.70;;;11.80;92.10;;;;;;5026685;28;20028;-73
2022/11/17 10:29:10;;;;;;;3.75;1.05;;;11.80;92.20;;;;;;5027481;28;20037;-73
2022/11/17 10:31:41;;;;;;;6.67;1.10;;;11.80;92.00;;;;;;5027587;28;20029;-74
2022/11/17 10:34:17;;;;;;;2.95;0.70;;;11.90;91.90;;;;;;5022631;28;20026;-73
2022/11/17 10:36:47;;;;;;;5.45;1.60;;;11.90;91.60;;;;;;5009547;28;20026;-73
2022/11/17 10:39:32;;;;;;;1.42;0.80;;;11.90;91.70;;;;;;5010331;28;20032;-73
2022/11/17 10:42:00;;;;;;;3.05;0.95;;;11.90;91.70;;;;;;5027253;28;20061;-74
2022/11/17 10:44:40;;;;;;;6.20;1.30;;;11.90;91.90;;;;;;5028181;28;20082;-74
2022/11/17 10:47:23;;;;;;;4.40;1.30;;;11.90;91.90;;;;;;5010723;28;20045;-71
2022/11/17 10:50:06;;;;;;;4.38;0.93;;;11.90;91.60;;;;;;5012246;28;20033;-72
2022/11/17 10:52:32;;;;;;;4.78;1.23;;;11.90;91.40;;;;;;5022253;28;20512;-72
2022/11/17 10:55:16;;;;;;;4.50;1.00;;;12.00;91.60;;;;;;5014788;28;20049;-72
2022/11/17 10:57:46;;;;;;;3.55;0.82;;;12.00;91.50;;;;;;5012235;28;20036;-74
2022/11/17 11:00:50;;;;;;;4.30;0.98;;;12.00;91.60;;;;;;5012673;28;20156;-72
2022/11/17 11:03:22;;;;;;;4.60;1.15;;;12.00;91.60;;;;;;5036463;28;20056;-73
2022/11/17 11:06:02;;;;;;;4.07;0.73;;;12.10;91.40;;;;;;5018699;28;20033;-72
2022/11/17 11:08:42;;;;;;;5.82;1.17;;;12.20;91.10;;;;;;5017798;28;20392;-74
2022/11/17 11:12:07;;;;;;;4.32;0.93;;;12.20;91.00;;;;;;5017738;28;20036;-74
2022/11/17 11:14:51;;;;;;;5.60;1.15;;;12.20;91.10;;;;;;4942965;28;20039;-73
2022/11/17 11:17:19;;;;;;;3.80;0.70;;;12.30;90.80;;;;;;4959479;28;20027;-72
2022/11/17 11:19:50;;;;;;;6.38;0.90;;;12.20;90.70;;;;;;5019025;28;20415;-73
2022/11/17 11:22:40;;;;;;;3.72;0.85;;;12.20;90.90;;;;;;5018354;28;20526;-72
2022/11/17 11:25:49;;;;;;;2.35;0.82;;;12.30;90.80;;;;;;5023332;28;20049;-73
2022/11/17 11:28:33;;;;;;;4.80;0.80;;;12.40;90.50;;;;;;5005163;28;20026;-73
2022/11/17 11:31:10;;;;;;;7.38;1.23;;;12.40;90.20;;;;;;5016975;28;20396;-73
2022/11/17 11:33:42;;;;;;;3.40;0.88;;;12.40;90.50;;;;;;5020129;28;20040;-72
2022/11/17 11:36:27;;;;;;;4.72;0.98;;;12.40;90.30;;;;;;5014248;28;20064;-73
2022/11/17 11:39:16;;;;;;;4.72;0.73;;;12.40;90.50;;;;;;5024083;28;20694;-73
2022/11/17 11:41:54;;;;;;;4.28;0.63;;;12.40;90.00;;;;;;5014691;28;20172;-73
2022/11/17 11:44:40;;;;;;;2.97;0.88;;;12.40;89.70;;;;;;5010395;28;20045;-73
2022/11/17 11:47:16;;;;;;;3.72;1.35;;;12.50;89.80;;;;;;5014222;28;20086;-72
2022/11/17 11:49:53;;;;;;;4.03;0.88;;;12.50;89.90;;;;;;5019693;28;20663;-73
2022/11/17 11:52:21;;;;;;;3.30;0.60;;;12.60;89.80;;;;;;5026228;28;20026;-72
2022/11/17 11:54:59;;;;;;;4.78;0.80;;;12.60;89.60;;;;;;5025829;28;20069;-73
2022/11/17 11:57:42;;;;;;;2.88;1.00;;;12.50;89.40;;;;;;5026063;28;20488;-73
2022/11/17 12:00:15;;;;;;;3.88;1.13;;;12.50;89.50;;;;;;5019503;28;20092;-73
2022/11/17 12:02:47;;;;;;;3.97;0.80;;;12.50;89.70;;;;;;5013296;28;20021;-72
2022/11/17 12:05:51;;;;;;;3.92;1.10;;;12.40;89.50;;;;;;5010577;28;20030;-72
2022/11/17 12:08:31;;;;;;;7.63;1.05;;;12.50;89.70;;;;;;5024994;28;20539;-73
2022/11/17 12:11:59;;;;;;;2.60;0.77;;;12.40;89.50;;;;;;5014434;28;20065;-74
2022/11/17 12:13:51;;;;;;;2.47;0.63;;;12.40;89.50;;;;;;5020703;28;20040;-72
2022/11/17 12:16:24;;;;;;;2.70;0.73;;;12.50;89.60;;;;;;5017383;28;20036;-73
2022/11/17 12:18:50;;;;;;;2.60;0.80;;;12.50;89.50;;;;;;5019192;28;20049;-72
2022/11/17 12:21:29;;;;;;;3.42;1.42;;;12.40;89.90;;;;;;5016908;28;20492;-73
2022/11/17 12:24:07;;;;;;;2.47;0.80;;;12.40;89.60;;;;;;5016817;28;20415;-73
2022/11/17 12:26:33;;;;;;;3.42;1.25;;;12.50;89.70;;;;;;5013401;28;20034;-73
2022/11/17 12:29:21;;;;;;;4.70;1.00;;;12.50;89.80;;;;;;5016492;28;20033;-73
2022/11/17 12:31:51;;;;;;;7.22;1.25;;;12.50;89.80;;;;;;5017162;28;20034;-75
2022/11/17 12:34:29;;;;;;;3.80;1.38;;;12.40;90.20;;;;;;5020399;28;20075;-76
2022/11/17 12:37:12;;;;;;;6.88;1.33;;;12.50;90.20;;;;;;5013093;28;20058;-75
2022/11/17 12:39:55;;;;;;;5.18;1.13;;;12.50;90.30;;;;;;5017731;28;20057;-75
2022/11/17 12:42:21;;;;;;;4.53;1.23;;;12.50;90.40;;;;;;5014489;28;20037;-74
2022/11/17 12:44:46;;;;;;;3.50;0.80;;;12.60;89.90;;;;;;5027649;28;20052;-73
2022/11/17 12:47:15;;;;;;;2.75;0.68;;;12.50;89.60;;;;;;5022792;28;20053;-75
2022/11/17 12:50:03;;;;;;;3.63;0.70;;;12.60;89.90;;;;;;5028306;28;20072;-76
2022/11/17 12:52:58;;;;;;;3.65;0.70;;;12.50;89.90;;;;;;5024382;28;20026;-75
2022/11/17 12:55:27;;;;;;;4.03;0.98;;;12.50;89.30;;;;;;5019952;28;20120;-75
2022/11/17 12:58:04;;;;;;;4.85;0.93;;;12.60;89.10;;;;;;5029116;28;20025;-75
2022/11/17 13:00:44;;;;;;;4.25;0.93;;;12.50;89.60;;;;;;5025674;28;20107;-75
2022/11/17 13:03:24;;;;;;;7.82;1.50;;;12.60;89.50;;;;;;5017421;28;20029;-75
2022/11/17 13:06:10;;;;;;;6.90;0.98;;;12.50;89.40;;;;;;5025747;28;20034;-76
2022/11/17 13:08:38;;;;;;;3.90;0.80;;;12.40;90.20;;;;;;5030349;28;20021;-73
2022/11/17 13:11:13;;;;;;;3.22;0.73;;;12.40;90.10;;;;;;5024903;28;20454;-74
2022/11/17 13:13:40;;;;;;;8.43;1.23;;;12.40;90.00;;;;;;5026831;28;20018;-74
2022/11/17 13:16:11;;;;;;;6.90;1.92;;;12.50;90.00;;;;;;5017274;28;20026;-75
2022/11/17 13:18:40;;;;;;;3.83;0.80;;;12.50;89.70;;;;;;5018310;28;20029;-75
2022/11/17 13:21:30;;;;;;;5.32;1.30;;;12.50;90.00;;;;;;5023929;28;20022;-75
2022/11/17 13:23:57;;;;;;;5.25;0.80;;;12.50;90.10;;;;;;5010845;28;20833;-76
2022/11/17 13:26:25;;;;;;;7.25;1.20;;;12.50;90.00;;;;;;5016191;28;20434;-75
2022/11/17 13:29:17;;;;;;;3.95;1.05;;;12.50;90.10;;;;;;5018432;28;20065;-76
2022/11/17 13:31:43;;;;;;;3.67;0.85;;;12.40;90.00;;;;;;5019887;28;20074;-75
2022/11/17 13:34:09;;;;;;;5.88;1.67;;;12.40;89.50;;;;;;5020230;28;20487;-75
2022/11/17 13:36:35;;;;;;;5.85;1.15;;;12.30;90.20;;;;;;5022815;28;20029;-75
2022/11/17 13:39:01;;;;;;;3.33;0.85;;;12.30;90.40;;;;;;5024513;28;20176;-75
2022/11/17 13:41:37;;;;;;;5.00;1.88;;;12.30;90.50;;;;;;5019999;28;20434;-75